Time;durP1;ratioP1;P1;durP2;ratioP2;P2;SDS_P1;SDS_P2;PMS_P1;PMS_P2;Temp;Humidity;BMP_temperature;BMP_pressure;BME280_temperature;BME280_humidity;BME280_pressure;Samples;Min_cycle;Max_cycle;Signal;HPM_P1;HPM_P2
2021/05/25 00:01:24;;;;;;;1.80;1.48;;;;;;;10.09;85.26;96147.00;5032522;28;20061;-67
2021/05/25 00:03:50;;;;;;;4.13;1.60;;;;;;;10.01;85.98;96162.19;5032996;28;20064;-67
2021/05/25 00:06:17;;;;;;;3.10;1.80;;;;;;;9.96;86.16;96167.78;5032707;28;20068;-65
2021/05/25 00:08:43;;;;;;;4.43;1.55;;;;;;;9.91;85.79;96176.09;5033017;28;20049;-65
2021/05/25 00:11:09;;;;;;;2.55;1.70;;;;;;;9.85;86.39;96174.66;5032610;28;20099;-65
2021/05/25 00:13:35;;;;;;;3.17;1.52;;;;;;;9.76;86.38;96198.28;5032795;28;20045;-65
2021/05/25 00:16:01;;;;;;;1.55;1.10;;;;;;;9.70;86.18;96205.00;5032344;28;20413;-69
2021/05/25 00:18:27;;;;;;;1.67;1.00;;;;;;;9.53;84.28;96195.69;5032913;28;20068;-65
2021/05/25 00:20:54;;;;;;;3.35;0.90;;;;;;;9.36;84.35;96204.56;5032768;28;20092;-65
2021/05/25 00:23:20;;;;;;;1.85;0.93;;;;;;;9.20;84.70;96202.59;5032096;28;20418;-65
2021/05/25 00:25:46;;;;;;;1.88;0.90;;;;;;;9.15;84.97;96214.38;5032778;28;20117;-65
2021/05/25 00:28:12;;;;;;;2.95;1.20;;;;;;;9.10;85.16;96218.03;5032018;28;20046;-65
2021/05/25 00:30:38;;;;;;;2.42;1.10;;;;;;;9.04;85.77;96226.63;5032613;28;20053;-66
2021/05/25 00:33:05;;;;;;;3.15;1.08;;;;;;;8.95;85.82;96232.00;5032028;28;20052;-65
2021/05/25 00:35:35;;;;;;;2.47;1.02;;;;;;;8.93;86.24;96214.41;5032491;28;20492;-65
2021/05/25 00:38:01;;;;;;;2.50;1.10;;;;;;;8.95;86.49;96213.00;5032569;28;20049;-65
2021/05/25 00:40:27;;;;;;;3.30;1.23;;;;;;;8.91;86.06;96203.88;5032191;28;20038;-65
2021/05/25 00:42:53;;;;;;;2.75;1.40;;;;;;;8.91;86.25;96206.56;5032408;28;20132;-65
2021/05/25 00:45:20;;;;;;;2.58;1.02;;;;;;;8.93;86.04;96203.53;5031892;28;20056;-65
2021/05/25 00:47:46;;;;;;;3.40;1.00;;;;;;;8.98;85.86;96203.41;5032294;28;20046;-65
2021/05/25 00:50:16;;;;;;;2.38;1.20;;;;;;;9.00;85.23;96203.94;5031629;28;20124;-65
2021/05/25 00:52:43;;;;;;;4.57;1.40;;;;;;;9.02;85.44;96207.91;5032306;28;20548;-65
2021/05/25 00:55:14;;;;;;;3.63;1.25;;;;;;;9.05;85.26;96201.06;5031535;28;20072;-65
2021/05/25 00:57:41;;;;;;;1.75;1.08;;;;;;;9.04;85.04;96203.00;5031680;28;20049;-65
2021/05/25 01:00:09;;;;;;;1.73;1.52;;;;;;;9.06;85.53;96206.19;5031686;28;20464;-65
2021/05/25 01:02:36;;;;;;;2.33;0.90;;;;;;;9.09;85.27;96216.44;5031856;28;20429;-65
2021/05/25 01:05:03;;;;;;;3.42;1.10;;;;;;;9.04;84.85;96213.06;5031352;28;20467;-66
2021/05/25 01:07:29;;;;;;;2.38;1.02;;;;;;;9.04;84.88;96211.13;5031820;28;20080;-65
2021/05/25 01:09:57;;;;;;;3.17;1.40;;;;;;;9.04;85.10;96200.28;5031618;28;20076;-65
2021/05/25 01:12:28;;;;;;;2.88;1.10;;;;;;;9.06;85.36;96198.03;5031394;28;20096;-65
2021/05/25 01:14:57;;;;;;;1.40;1.08;;;;;;;9.06;85.06;96191.81;5031857;28;20041;-65
2021/05/25 01:17:24;;;;;;;2.00;1.10;;;;;;;9.01;84.60;96192.75;5031259;28;20045;-65
2021/05/25 01:19:50;;;;;;;3.05;1.00;;;;;;;9.05;84.87;96193.72;5031652;28;20416;-65
2021/05/25 01:22:16;;;;;;;2.50;1.00;;;;;;;9.01;84.89;96190.03;5031149;28;20132;-65
2021/05/25 01:24:42;;;;;;;3.58;1.00;;;;;;;9.00;85.10;96202.00;5031498;28;20149;-64
2021/05/25 01:27:08;;;;;;;3.42;1.08;;;;;;;9.03;85.10;96206.00;5031027;28;20587;-65
2021/05/25 01:29:38;;;;;;;2.13;1.10;;;;;;;9.07;83.96;96202.34;5031573;28;20052;-65
2021/05/25 01:32:05;;;;;;;2.33;1.10;;;;;;;9.13;83.68;96205.72;5031014;28;20045;-65
2021/05/25 01:34:31;;;;;;;3.50;1.00;;;;;;;9.19;83.32;96201.78;5031268;28;20052;-65
2021/05/25 01:36:57;;;;;;;2.00;0.90;;;;;;;9.20;83.07;96191.72;5031385;28;20045;-65
2021/05/25 01:39:24;;;;;;;2.38;0.93;;;;;;;9.24;82.66;96203.53;5030671;28;20569;-65
2021/05/25 01:41:52;;;;;;;2.63;1.10;;;;;;;9.24;82.37;96208.97;5030354;28;20551;-67
2021/05/25 01:44:18;;;;;;;2.03;0.98;;;;;;;9.26;82.15;96217.63;5030295;28;20046;-65
2021/05/25 01:46:45;;;;;;;1.08;0.95;;;;;;;9.26;82.07;96204.84;5030155;28;20052;-65
2021/05/25 01:49:11;;;;;;;2.33;1.00;;;;;;;9.30;82.25;96203.13;5030180;28;20107;-65
2021/05/25 01:51:37;;;;;;;2.38;1.00;;;;;;;9.34;81.76;96206.81;5029577;28;20132;-65
2021/05/25 01:54:03;;;;;;;2.70;1.00;;;;;;;9.36;81.34;96212.72;5030553;28;20459;-65
2021/05/25 01:56:30;;;;;;;1.45;0.90;;;;;;;9.33;80.61;96207.91;5029605;28;20653;-65
2021/05/25 01:58:56;;;;;;;2.22;0.98;;;;;;;9.33;80.93;96212.53;5030751;28;20045;-65
2021/05/25 02:01:22;;;;;;;2.05;0.98;;;;;;;9.34;80.68;96214.97;5029506;28;20550;-65
2021/05/25 02:03:48;;;;;;;2.47;1.00;;;;;;;9.35;80.71;96222.00;5030162;28;20488;-65
2021/05/25 02:06:14;;;;;;;3.20;0.95;;;;;;;9.38;81.26;96215.13;5029654;28;20104;-65
2021/05/25 02:08:40;;;;;;;2.20;1.15;;;;;;;9.38;80.70;96215.94;5030028;28;20045;-65
2021/05/25 02:11:08;;;;;;;3.20;1.05;;;;;;;9.37;80.32;96224.41;5030183;28;20505;-66
2021/05/25 02:13:36;;;;;;;2.85;0.90;;;;;;;9.28;80.52;96235.22;5029649;28;20128;-65
2021/05/25 02:16:06;;;;;;;2.38;1.00;;;;;;;9.27;80.15;96235.53;5030346;28;20125;-65
2021/05/25 02:18:35;;;;;;;2.92;0.80;;;;;;;9.27;80.50;96235.53;5029281;28;20045;-65
2021/05/25 02:21:02;;;;;;;2.25;1.00;;;;;;;9.18;79.95;96232.75;5030681;28;20562;-65
2021/05/25 02:23:29;;;;;;;2.28;0.85;;;;;;;9.14;79.94;96223.66;5029271;28;20052;-65
2021/05/25 02:25:56;;;;;;;2.30;0.90;;;;;;;9.14;80.12;96223.66;5029330;28;20454;-65
2021/05/25 02:28:22;;;;;;;2.00;1.08;;;;;;;9.15;80.72;96234.22;5030299;28;20092;-65
2021/05/25 02:30:49;;;;;;;2.22;1.15;;;;;;;9.18;80.37;96245.56;5030175;28;20053;-65
2021/05/25 02:33:17;;;;;;;7.72;1.20;;;;;;;9.24;80.74;96242.41;5025485;28;20100;-65
2021/05/25 02:35:44;;;;;;;6.28;0.90;;;;;;;9.23;79.93;96253.56;5030579;28;20416;-65
2021/05/25 02:38:13;;;;;;;4.15;1.13;;;;;;;9.26;80.00;96263.84;5030132;28;20050;-65
2021/05/25 02:40:39;;;;;;;4.03;1.00;;;;;;;9.27;79.80;96266.22;5030503;28;20061;-65
2021/05/25 02:43:06;;;;;;;1.80;0.88;;;;;;;9.26;78.94;96259.19;5030203;28;20092;-65
2021/05/25 02:45:32;;;;;;;6.28;1.13;;;;;;;9.23;79.07;96261.72;5030537;28;20493;-65
2021/05/25 02:47:59;;;;;;;3.30;1.00;;;;;;;9.26;79.63;96255.69;5030618;28;20057;-65
2021/05/25 02:50:26;;;;;;;3.17;0.88;;;;;;;9.25;79.15;96259.50;5029796;28;20104;-65
2021/05/25 02:52:53;;;;;;;1.20;0.80;;;;;;;9.26;78.34;96266.53;5030622;28;20056;-65
2021/05/25 02:55:22;;;;;;;2.15;1.08;;;;;;;9.24;78.16;96274.19;5029832;28;20570;-65
2021/05/25 02:57:48;;;;;;;1.55;0.85;;;;;;;9.20;77.60;96278.66;5030527;28;20041;-65
2021/05/25 03:00:16;;;;;;;5.57;1.50;;;;;;;9.19;78.29;96283.28;5029810;28;20155;-65
2021/05/25 03:02:42;;;;;;;2.60;1.10;;;;;;;9.22;78.69;96281.84;5033096;28;20056;-66
2021/05/25 03:05:11;;;;;;;2.25;0.80;;;;;;;9.23;78.79;96278.03;5029878;28;20050;-65
2021/05/25 03:07:38;;;;;;;2.88;0.95;;;;;;;9.25;78.29;96286.69;5030533;28;20072;-65
2021/05/25 03:10:05;;;;;;;1.63;0.88;;;;;;;9.27;77.44;96285.25;5029857;28;20050;-65
2021/05/25 03:12:31;;;;;;;1.23;0.70;;;;;;;9.19;76.27;96288.72;5030405;28;20458;-64
2021/05/25 03:14:57;;;;;;;2.92;0.80;;;;;;;9.21;77.10;96291.13;5030312;28;20049;-64
2021/05/25 03:17:23;;;;;;;1.55;0.90;;;;;;;9.22;76.80;96279.94;5029822;28;20066;-65
2021/05/25 03:19:49;;;;;;;4.75;0.90;;;;;;;9.23;76.31;96272.59;5032206;28;20052;-64
2021/05/25 03:22:16;;;;;;;2.20;0.82;;;;;;;9.22;76.06;96281.84;5033674;28;20053;-65
2021/05/25 03:24:42;;;;;;;2.67;0.90;;;;;;;9.22;76.14;96284.56;5033925;28;20041;-64
2021/05/25 03:27:08;;;;;;;3.28;1.00;;;;;;;9.22;75.76;96292.72;5033311;28;20045;-65
2021/05/25 03:29:34;;;;;;;1.60;0.88;;;;;;;9.23;75.19;96288.88;5033794;28;20132;-64
2021/05/25 03:32:01;;;;;;;5.72;0.90;;;;;;;9.22;74.89;96287.28;5036630;28;20493;-65
2021/05/25 03:34:27;;;;;;;5.40;0.90;;;;;;;9.19;74.61;96296.06;5033429;28;20160;-64
2021/05/25 03:36:53;;;;;;;3.97;0.80;;;;;;;9.21;75.57;96308.22;5033798;28;20045;-65
2021/05/25 03:39:20;;;;;;;4.15;0.88;;;;;;;9.23;75.32;96297.84;5032951;28;20512;-65
2021/05/25 03:41:46;;;;;;;6.47;1.25;;;;;;;9.18;75.12;96299.88;5033536;28;20041;-64
2021/05/25 03:44:14;;;;;;;4.72;0.75;;;;;;;9.20;75.41;96295.75;5033102;28;20045;-65
2021/05/25 03:46:40;;;;;;;4.45;0.98;;;;;;;9.18;74.76;96302.59;5033380;28;20056;-64
2021/05/25 03:49:06;;;;;;;3.25;0.80;;;;;;;9.11;75.14;96303.84;5032965;28;20048;-65
2021/05/25 03:51:32;;;;;;;4.43;1.10;;;;;;;9.09;75.39;96308.81;5033118;28;20124;-65
2021/05/25 03:53:58;;;;;;;3.83;1.00;;;;;;;9.10;75.19;96318.56;5033225;28;20041;-64
2021/05/25 03:56:30;;;;;;;2.92;0.93;;;;;;;9.09;75.05;96310.72;5032834;28;20061;-64
2021/05/25 03:58:56;;;;;;;4.25;1.40;;;;;;;9.02;73.80;96308.41;5033354;28;20065;-64
2021/05/25 04:01:24;;;;;;;3.13;1.15;;;;;;;8.99;73.87;96300.09;5032804;28;20456;-64
2021/05/25 04:03:51;;;;;;;4.00;0.70;;;;;;;9.02;74.98;96294.84;5035786;28;20041;-64
2021/05/25 04:06:17;;;;;;;8.00;1.00;;;;;;;9.06;74.22;96306.69;5032705;28;20057;-65
2021/05/25 04:08:44;;;;;;;4.25;1.10;;;;;;;9.02;74.08;96300.25;5033091;28;20053;-64
2021/05/25 04:11:10;;;;;;;2.67;1.00;;;;;;;8.97;74.17;96313.97;5032453;28;20488;-65
2021/05/25 04:13:37;;;;;;;2.90;0.75;;;;;;;8.99;74.37;96319.91;5032956;28;20447;-64
2021/05/25 04:16:04;;;;;;;3.75;0.90;;;;;;;9.00;73.35;96312.56;5032536;28;20049;-65
2021/05/25 04:18:30;;;;;;;5.30;1.10;;;;;;;9.05;73.27;96312.44;5032920;28;20049;-65
2021/05/25 04:20:56;;;;;;;2.05;1.00;;;;;;;9.06;74.03;96309.41;5032728;28;20041;-65
2021/05/25 04:23:22;;;;;;;3.40;0.93;;;;;;;9.10;73.37;96313.13;5032264;28;20507;-64
2021/05/25 04:25:48;;;;;;;4.30;1.00;;;;;;;9.11;73.22;96309.28;5032736;28;20042;-64
2021/05/25 04:28:15;;;;;;;4.60;1.00;;;;;;;9.08;73.90;96328.09;5032149;28;20057;-64
2021/05/25 04:30:42;;;;;;;5.15;0.98;;;;;;;9.09;73.69;96333.25;5031840;28;20041;-65
2021/05/25 04:33:08;;;;;;;1.77;1.08;;;;;;;9.09;73.69;96333.25;5035013;28;20452;-65
2021/05/25 04:35:34;;;;;;;4.38;1.05;;;;;;;9.09;73.37;96330.53;5032387;28;20037;-65
2021/05/25 04:38:00;;;;;;;2.65;0.98;;;;;;;9.07;73.65;96331.94;5032557;28;20104;-64
2021/05/25 04:40:27;;;;;;;6.50;1.10;;;;;;;9.07;73.79;96335.44;5032127;28;20041;-64
2021/05/25 04:42:54;;;;;;;4.82;1.10;;;;;;;9.05;74.12;96343.13;5032433;28;20107;-65
2021/05/25 04:45:20;;;;;;;2.45;0.80;;;;;;;9.00;73.59;96343.25;5031753;28;20045;-64
2021/05/25 04:47:47;;;;;;;4.10;0.90;;;;;;;9.04;73.89;96352.38;5032066;28;20558;-64
2021/05/25 04:50:15;;;;;;;2.95;0.70;;;;;;;9.04;73.82;96351.59;5031642;28;20076;-64
2021/05/25 04:52:42;;;;;;;5.85;1.38;;;;;;;9.02;72.62;96343.72;5032015;28;20049;-64
2021/05/25 04:55:11;;;;;;;3.30;0.90;;;;;;;9.09;73.14;96348.75;5031664;28;20046;-65
2021/05/25 04:57:38;;;;;;;4.22;0.90;;;;;;;9.09;71.72;96338.69;5032203;28;20574;-64
2021/05/25 05:00:06;;;;;;;3.97;1.05;;;;;;;9.08;72.40;96342.50;5031804;28;20041;-65
2021/05/25 05:02:31;;;;;;;3.22;0.95;;;;;;;9.15;72.02;96348.31;5034866;28;20037;-64
2021/05/25 05:04:58;;;;;;;3.60;1.10;;;;;;;9.17;71.37;96345.28;5031804;28;20069;-65
2021/05/25 05:07:24;;;;;;;2.42;0.85;;;;;;;9.19;71.58;96347.66;5031383;28;20057;-64
2021/05/25 05:09:50;;;;;;;5.43;0.80;;;;;;;9.18;69.96;96348.78;5031706;28;20112;-64
2021/05/25 05:12:16;;;;;;;3.50;1.10;;;;;;;9.14;70.61;96341.28;5031231;28;20056;-65
2021/05/25 05:14:42;;;;;;;3.38;0.80;;;;;;;9.18;70.58;96332.50;5031663;28;20045;-64
2021/05/25 05:17:08;;;;;;;3.05;1.13;;;;;;;9.18;71.47;96340.63;5030936;28;20463;-64
2021/05/25 05:19:34;;;;;;;5.90;0.98;;;;;;;9.23;71.57;96354.91;5031350;28;20076;-64
2021/05/25 05:22:01;;;;;;;6.15;0.90;;;;;;;9.26;71.18;96358.94;5028406;28;20463;-64
2021/05/25 05:24:27;;;;;;;4.47;0.95;;;;;;;9.24;71.09;96356.53;5029410;28;20041;-64
2021/05/25 05:26:53;;;;;;;8.57;1.10;;;;;;;9.29;70.72;96352.84;5028733;28;20046;-69
2021/05/25 05:29:19;;;;;;;2.50;1.05;;;;;;;9.32;72.17;96355.78;5029175;28;20570;-69
2021/05/25 05:31:45;;;;;;;2.10;0.90;;;;;;;9.30;69.78;96343.63;5031233;28;20044;-69
2021/05/25 05:34:11;;;;;;;5.90;0.90;;;;;;;9.37;70.25;96346.69;5029352;28;20132;-70
2021/05/25 05:36:37;;;;;;;2.97;1.05;;;;;;;9.39;70.87;96352.59;5030574;28;20053;-69
2021/05/25 05:39:05;;;;;;;3.72;1.00;;;;;;;9.41;70.29;96359.34;5029851;28;20053;-69
2021/05/25 05:41:31;;;;;;;2.35;0.82;;;;;;;9.40;70.57;96370.53;5030740;28;20435;-69
2021/05/25 05:43:57;;;;;;;4.88;0.90;;;;;;;9.43;70.73;96379.97;5030353;28;20079;-69
2021/05/25 05:46:24;;;;;;;1.98;0.80;;;;;;;9.39;70.89;96385.22;5030841;28;20076;-69
2021/05/25 05:48:50;;;;;;;3.13;0.85;;;;;;;9.40;70.82;96382.22;5030293;28;20038;-70
2021/05/25 05:51:16;;;;;;;4.35;0.88;;;;;;;9.37;70.36;96388.25;5045889;28;20042;-72
2021/05/25 05:53:42;;;;;;;3.85;0.90;;;;;;;9.36;67.93;96396.72;5030283;28;20484;-70
2021/05/25 05:56:09;;;;;;;3.90;0.80;;;;;;;9.39;67.72;96387.94;5030349;28;20045;-69
2021/05/25 05:58:35;;;;;;;5.55;0.88;;;;;;;9.41;67.82;96389.25;5030332;28;20045;-69
2021/05/25 06:01:01;;;;;;;6.15;0.93;;;;;;;9.45;67.76;96394.88;5030571;28;20047;-70
2021/05/25 06:03:27;;;;;;;4.43;0.70;;;;;;;9.46;66.06;96385.59;5033889;28;20048;-70
2021/05/25 06:05:53;;;;;;;2.08;0.73;;;;;;;9.45;65.82;96388.63;5031308;28;20132;-69
2021/05/25 06:08:21;;;;;;;6.07;0.93;;;;;;;9.39;65.24;96379.78;5030537;28;20069;-71
2021/05/25 06:10:51;;;;;;;4.63;0.90;;;;;;;9.36;65.79;96391.28;5031243;28;20128;-69
2021/05/25 06:13:19;;;;;;;3.45;0.75;;;;;;;9.36;66.36;96397.53;5030597;28;20116;-70
2021/05/25 06:15:45;;;;;;;6.00;1.25;;;;;;;9.38;67.14;96398.00;5031021;28;20041;-71
2021/05/25 06:18:11;;;;;;;4.22;0.85;;;;;;;9.39;66.31;96405.03;5030340;28;20049;-70
2021/05/25 06:20:37;;;;;;;4.05;0.90;;;;;;;9.43;65.10;96412.59;5031094;28;20049;-70
2021/05/25 06:23:03;;;;;;;6.80;1.00;;;;;;;9.39;64.32;96410.47;5029020;28;20073;-69
2021/05/25 06:25:29;;;;;;;3.13;0.80;;;;;;;9.40;64.56;96408.59;5029800;28;20120;-69
2021/05/25 06:27:56;;;;;;;3.58;0.98;;;;;;;9.40;64.90;96414.03;5030518;28;20045;-70
2021/05/25 06:30:23;;;;;;;5.57;0.90;;;;;;;9.44;63.59;96423.16;5029959;28;20432;-70
2021/05/25 06:32:49;;;;;;;6.40;1.45;;;;;;;9.47;64.66;96436.13;5038002;28;20063;-70
2021/05/25 06:35:16;;;;;;;5.55;0.90;;;;;;;9.47;62.09;96425.25;5049905;28;20408;-70
2021/05/25 06:37:42;;;;;;;4.07;1.25;;;;;;;9.53;63.50;96429.47;5050482;28;20128;-70
2021/05/25 06:40:10;;;;;;;2.67;0.80;;;;;;;9.53;63.09;96429.47;5050160;28;20496;-70
2021/05/25 06:42:36;;;;;;;6.30;1.05;;;;;;;9.64;63.68;96422.66;5050594;28;20045;-70
2021/05/25 06:45:02;;;;;;;5.47;1.00;;;;;;;9.66;62.14;96423.16;5049920;28;20534;-70
2021/05/25 06:47:29;;;;;;;6.20;0.98;;;;;;;9.77;62.18;96429.16;5050705;28;20049;-69
2021/05/25 06:49:55;;;;;;;4.05;1.00;;;;;;;9.78;61.78;96424.50;5050291;28;20049;-69
2021/05/25 06:52:21;;;;;;;6.57;1.10;;;;;;;9.79;61.66;96431.56;5049876;28;20060;-70
2021/05/25 06:54:47;;;;;;;7.25;0.75;;;;;;;9.84;60.81;96434.94;5052492;28;20106;-70
2021/05/25 06:57:13;;;;;;;4.60;0.95;;;;;;;9.89;62.11;96434.81;5053880;28;20450;-69
2021/05/25 06:59:40;;;;;;;2.53;0.82;;;;;;;9.97;62.36;96438.72;5054298;28;20123;-70
2021/05/25 07:02:06;;;;;;;5.70;0.90;;;;;;;10.06;63.63;96436.81;5050288;28;20050;-70
2021/05/25 07:04:32;;;;;;;5.72;1.00;;;;;;;10.09;60.82;96430.75;5034485;28;20530;-71
2021/05/25 07:06:58;;;;;;;4.13;0.90;;;;;;;10.18;61.62;96419.94;5034332;28;20119;-70
2021/05/25 07:09:24;;;;;;;2.97;0.95;;;;;;;10.27;61.76;96428.13;5033627;28;20389;-70
2021/05/25 07:11:51;;;;;;;4.55;1.00;;;;;;;10.35;61.72;96446.44;5034258;28;20075;-70
2021/05/25 07:14:17;;;;;;;4.95;1.08;;;;;;;10.32;59.18;96436.16;5033601;28;20051;-70
2021/05/25 07:16:43;;;;;;;5.25;0.85;;;;;;;10.24;61.07;96440.47;5034010;28;20152;-69
2021/05/25 07:19:08;;;;;;;5.22;0.90;;;;;;;10.29;60.20;96450.41;5033542;28;20497;-69
2021/05/25 07:21:35;;;;;;;4.18;0.77;;;;;;;10.27;60.21;96449.91;5033989;28;20045;-70
2021/05/25 07:24:02;;;;;;;5.32;1.10;;;;;;;10.32;60.75;96438.88;5033684;28;20057;-71
2021/05/25 07:26:27;;;;;;;4.40;0.80;;;;;;;10.47;61.27;96445.84;5034047;28;20050;-70
2021/05/25 07:28:54;;;;;;;5.70;1.00;;;;;;;10.57;59.50;96432.75;5033999;28;20064;-70
2021/05/25 07:31:20;;;;;;;3.13;0.95;;;;;;;10.67;62.59;96437.91;5033401;28;20052;-70
2021/05/25 07:33:46;;;;;;;2.05;0.77;;;;;;;10.81;57.67;96437.78;5033714;28;20065;-70
2021/05/25 07:36:12;;;;;;;5.05;0.93;;;;;;;10.81;58.59;96445.16;5033375;28;20049;-70
2021/05/25 07:38:39;;;;;;;3.17;0.80;;;;;;;10.81;60.18;96437.78;5033688;28;20682;-70
2021/05/25 07:41:06;;;;;;;5.32;0.93;;;;;;;10.75;57.49;96430.84;5033320;28;20056;-70
2021/05/25 07:43:32;;;;;;;5.60;1.00;;;;;;;10.66;58.59;96433.56;5033549;28;20046;-68
2021/05/25 07:45:58;;;;;;;4.95;1.10;;;;;;;10.66;58.91;96425.41;5033679;28;20072;-69
2021/05/25 07:48:24;;;;;;;5.47;0.90;;;;;;;10.74;61.21;96436.63;5033077;28;20041;-69
2021/05/25 07:50:50;;;;;;;2.33;0.88;;;;;;;10.80;58.63;96438.06;5033414;28;20092;-70
2021/05/25 07:53:17;;;;;;;2.42;0.68;;;;;;;10.86;56.78;96439.56;5033025;28;20045;-70
2021/05/25 07:55:44;;;;;;;4.35;1.08;;;;;;;10.82;58.59;96438.59;5033182;28;20045;-70
2021/05/25 07:58:10;;;;;;;3.15;1.10;;;;;;;10.86;60.26;96434.91;5032821;28;20060;-70
2021/05/25 08:00:36;;;;;;;3.35;0.90;;;;;;;10.83;56.62;96440.19;5033492;28;20045;-69
2021/05/25 08:03:03;;;;;;;3.38;0.93;;;;;;;10.76;56.27;96442.56;5032433;28;20526;-70
2021/05/25 08:05:31;;;;;;;4.97;0.80;;;;;;;10.73;57.51;96443.19;5032497;28;20046;-69
2021/05/25 08:07:57;;;;;;;5.70;0.88;;;;;;;10.68;56.22;96446.88;5033068;28;20432;-69
2021/05/25 08:10:23;;;;;;;9.38;0.90;;;;;;;10.60;56.84;96445.72;5032851;28;20069;-69
2021/05/25 08:12:50;;;;;;;5.57;0.70;;;;;;;10.59;57.54;96444.09;5033167;28;20045;-69
2021/05/25 08:15:19;;;;;;;3.10;0.60;;;;;;;10.56;58.09;96450.19;5032452;28;20049;-71
2021/05/25 08:17:54;;;;;;;7.45;0.95;;;;;;;10.57;58.59;96442.81;5033063;28;20037;-71
2021/05/25 08:20:20;;;;;;;6.00;0.88;;;;;;;10.52;58.32;96445.69;5032317;28;20104;-71
2021/05/25 08:22:48;;;;;;;4.63;0.85;;;;;;;10.53;56.93;96450.81;5032652;28;20405;-70
2021/05/25 08:25:16;;;;;;;3.55;0.68;;;;;;;10.52;56.94;96460.09;5032436;28;20088;-70
2021/05/25 08:27:45;;;;;;;4.97;1.00;;;;;;;10.41;54.63;96464.22;5032921;28;20049;-71
2021/05/25 08:30:15;;;;;;;5.68;0.90;;;;;;;10.38;57.43;96453.97;5032316;28;20513;-71
2021/05/25 08:32:41;;;;;;;4.00;0.75;;;;;;;10.44;57.30;96453.53;5031893;28;20045;-71
2021/05/25 08:35:08;;;;;;;3.03;0.70;;;;;;;10.42;53.83;96449.50;5031570;28;20053;-71
2021/05/25 08:37:34;;;;;;;3.72;0.77;;;;;;;10.44;56.53;96458.19;5031497;28;20056;-71
2021/05/25 08:40:02;;;;;;;2.92;0.77;;;;;;;10.49;56.67;96455.28;5032243;28;20459;-69
2021/05/25 08:42:28;;;;;;;7.03;1.20;;;;;;;10.56;56.87;96452.91;5031419;28;20045;-70
2021/05/25 08:44:54;;;;;;;5.13;1.08;;;;;;;10.61;56.65;96454.69;5032349;28;20053;-71
2021/05/25 08:47:21;;;;;;;3.22;0.95;;;;;;;10.58;58.43;96453.41;5030932;28;20065;-70
2021/05/25 08:49:47;;;;;;;2.88;1.05;;;;;;;10.66;58.23;96460.81;5014817;28;20053;-69
2021/05/25 08:52:15;;;;;;;5.35;0.90;;;;;;;10.65;55.86;96456.47;5030683;28;20057;-71
2021/05/25 08:54:42;;;;;;;5.03;0.95;;;;;;;10.69;58.06;96454.72;5031989;28;20672;-70
2021/05/25 08:57:09;;;;;;;3.15;0.82;;;;;;;10.76;56.72;96454.28;5031081;28;20073;-71
2021/05/25 08:59:36;;;;;;;4.93;1.17;;;;;;;10.91;57.78;96455.72;5032200;28;20081;-71
2021/05/25 09:02:04;;;;;;;6.07;1.00;;;;;;;11.17;56.23;96459.31;5031605;28;20084;-72
2021/05/25 09:05:04;;;;;;;2.83;0.63;;;;;;;11.72;55.78;96461.41;5031393;28;20060;-71
2021/05/25 09:07:39;;;;;;;4.45;0.80;;;;;;;12.11;56.97;96459.63;5031766;28;20515;-71
2021/05/25 09:10:06;;;;;;;7.40;0.90;;;;;;;12.53;56.07;96460.59;5030594;28;20046;-72
2021/05/25 09:12:33;;;;;;;3.33;0.70;;;;;;;12.62;53.84;96468.72;5031724;28;20055;-69
2021/05/25 09:15:00;;;;;;;6.30;1.00;;;;;;;12.50;53.58;96463.16;5030896;28;20049;-69
2021/05/25 09:17:26;;;;;;;3.15;0.70;;;;;;;12.55;55.95;96473.91;5030862;28;20512;-71
2021/05/25 09:19:55;;;;;;;2.47;0.70;;;;;;;12.60;51.75;96475.66;5031389;28;20090;-72
2021/05/25 09:22:26;;;;;;;3.78;0.80;;;;;;;12.78;48.83;96468.97;5030708;28;21485;-69
2021/05/25 09:24:53;;;;;;;3.30;0.55;;;;;;;12.70;47.31;96469.84;5031596;28;20045;-69
2021/05/25 09:27:31;;;;;;;4.07;0.73;;;;;;;12.38;45.46;96469.31;5030087;28;20056;-69
2021/05/25 09:30:16;;;;;;;3.83;0.73;;;;;;;12.26;47.13;96463.72;5031536;28;20457;-69
2021/05/25 09:32:47;;;;;;;3.95;0.90;;;;;;;12.38;46.41;96457.59;5030004;28;20041;-70
2021/05/25 09:35:15;;;;;;;7.07;1.10;;;;;;;12.45;49.63;96468.81;5030639;28;20041;-69
2021/05/25 09:37:46;;;;;;;4.38;0.98;;;;;;;12.65;52.54;96473.56;5030852;28;20046;-69
2021/05/25 09:40:15;;;;;;;4.32;0.70;;;;;;;12.93;49.80;96462.16;5030412;28;20107;-69
2021/05/25 09:42:41;;;;;;;3.30;1.00;;;;;;;13.04;49.52;96457.91;5031163;28;20072;-69
2021/05/25 09:45:11;;;;;;;3.40;0.88;;;;;;;13.14;50.11;96467.66;5029999;28;20049;-69
2021/05/25 09:47:38;;;;;;;5.20;0.88;;;;;;;13.52;49.06;96451.16;5031091;28;20492;-69
2021/05/25 09:50:06;;;;;;;6.15;0.80;;;;;;;13.80;48.87;96457.69;5029594;28;20058;-70
2021/05/25 09:52:34;;;;;;;2.53;0.80;;;;;;;14.06;48.09;96462.91;5031355;28;20104;-68
2021/05/25 09:55:08;;;;;;;2.00;0.70;;;;;;;14.50;50.32;96446.81;5030209;28;20107;-69
2021/05/25 09:57:45;;;;;;;4.80;0.90;;;;;;;14.77;41.96;96455.50;5030842;28;20041;-70
2021/05/25 10:00:29;;;;;;;4.78;0.73;;;;;;;14.73;42.83;96458.16;5030187;28;20053;-69
2021/05/25 10:03:10;;;;;;;3.78;0.88;;;;;;;14.78;42.88;96468.09;5029986;28;20403;-69
2021/05/25 10:05:36;;;;;;;3.20;0.60;;;;;;;14.65;42.10;96467.28;5031110;28;20121;-69
2021/05/25 10:08:05;;;;;;;7.47;0.90;;;;;;;14.36;42.12;96474.53;5029681;28;20050;-70
2021/05/25 10:10:33;;;;;;;3.60;0.98;;;;;;;14.13;40.29;96476.06;5031269;28;20079;-70
2021/05/25 10:13:00;;;;;;;2.03;0.60;;;;;;;13.78;43.33;96481.88;5029918;28;20045;-69
2021/05/25 10:15:27;;;;;;;4.25;0.98;;;;;;;13.45;43.42;96478.25;5030066;28;20540;-69
2021/05/25 10:20:39;;;;;;;2.80;0.60;;;;;;;13.12;44.58;96481.66;5025773;28;20515;-69
2021/05/25 10:23:08;;;;;;;2.13;0.55;;;;;;;13.17;43.09;96472.47;5030219;28;20460;-69
2021/05/25 10:25:36;;;;;;;3.67;0.60;;;;;;;13.26;46.55;96470.53;5029586;28;20045;-68
2021/05/25 10:28:07;;;;;;;4.32;0.80;;;;;;;13.34;48.67;96466.13;5030203;28;20608;-69
2021/05/25 10:30:45;;;;;;;2.33;0.70;;;;;;;13.39;48.51;96457.72;5033107;28;20100;-69
2021/05/25 10:33:25;;;;;;;3.47;0.77;;;;;;;13.36;47.51;96461.09;5033845;28;20049;-68
2021/05/25 10:35:54;;;;;;;5.65;0.88;;;;;;;13.34;46.36;96477.06;5034424;28;20042;-69
2021/05/25 10:38:23;;;;;;;3.35;0.85;;;;;;;13.23;46.26;96463.78;5033486;28;20049;-69
2021/05/25 10:40:51;;;;;;;3.58;0.90;;;;;;;13.27;48.53;96470.19;5034653;28;20045;-67
2021/05/25 10:43:44;;;;;;;1.98;0.70;;;;;;;13.32;47.94;96461.78;5032975;28;20731;-68
2021/05/25 10:46:22;;;;;;;2.30;0.70;;;;;;;13.49;45.95;96465.53;5034115;28;20061;-72
2021/05/25 10:49:14;;;;;;;2.58;0.60;;;;;;;13.83;47.65;96461.69;5033866;28;20053;-69
2021/05/25 10:52:15;;;;;;;1.63;0.50;;;;;;;14.22;46.19;96460.34;5033915;28;20434;-68
2021/05/25 10:54:49;;;;;;;4.63;0.60;;;;;;;14.30;44.08;96464.09;5034464;28;20045;-68
2021/05/25 10:57:41;;;;;;;3.33;0.63;;;;;;;14.37;43.35;96447.94;5032801;28;20049;-68
2021/05/25 11:00:11;;;;;;;3.13;0.73;;;;;;;14.19;46.36;96457.47;5033446;28;20715;-68
2021/05/25 11:02:49;;;;;;;3.47;0.90;;;;;;;14.25;41.43;96456.09;5033291;28;20053;-69
2021/05/25 11:05:54;;;;;;;6.38;0.80;;;;;;;14.20;44.31;96456.31;5033092;28;20045;-70
2021/05/25 11:08:24;;;;;;;2.70;0.65;;;;;;;14.46;45.18;96456.03;5033727;28;20046;-68
2021/05/25 11:10:53;;;;;;;4.40;0.52;;;;;;;14.39;41.92;96445.63;5033250;28;20041;-69
2021/05/25 11:13:25;;;;;;;3.53;0.50;;;;;;;14.31;45.37;96441.06;5033432;28;20045;-68
2021/05/25 11:16:02;;;;;;;3.72;0.80;;;;;;;14.29;46.83;96424.97;5033398;28;20099;-68
2021/05/25 11:18:33;;;;;;;2.70;0.60;;;;;;;14.54;46.20;96416.81;5033087;28;20046;-68
2021/05/25 11:21:13;;;;;;;3.38;0.77;;;;;;;14.79;46.67;96437.59;5033646;28;20398;-69
2021/05/25 11:23:44;;;;;;;5.15;0.80;;;;;;;14.90;47.03;96426.19;5032780;28;20496;-69
2021/05/25 11:26:49;;;;;;;1.92;0.75;;;;;;;15.05;42.46;96428.22;5033458;28;20045;-69
2021/05/25 11:29:17;;;;;;;2.28;0.82;;;;;;;14.96;42.86;96427.53;5032566;28;20132;-69
2021/05/25 11:31:43;;;;;;;4.68;0.73;;;;;;;14.83;45.17;96432.25;5033439;28;20050;-68
2021/05/25 11:34:09;;;;;;;5.22;0.65;;;;;;;14.93;43.86;96439.19;5032876;28;20045;-69
2021/05/25 11:36:35;;;;;;;5.57;0.80;;;;;;;14.75;40.76;96449.59;5032854;28;20447;-70
2021/05/25 11:39:04;;;;;;;1.58;0.50;;;;;;;14.61;40.12;96442.50;5033191;28;20049;-71
2021/05/25 11:41:31;;;;;;;3.75;0.75;;;;;;;14.55;40.00;96448.53;5032369;28;20045;-69
2021/05/25 11:44:05;;;;;;;6.95;0.80;;;;;;;14.33;42.17;96428.63;5033728;28;20092;-70
2021/05/25 11:46:42;;;;;;;4.75;0.50;;;;;;;14.29;40.59;96430.44;5032463;28;20049;-71